sensor_id;sensor_type;location;lat;lon;timestamp;pressure;altitude;pressure_sealevel;temperature;humidity
62293;BME280;48292;47.724;18.992;2022-08-20T03:31:52;96942.73;;;17.42;100.0
62293;BME280;48292;47.724;18.992;2022-08-20T03:36:53;96942.73;;;17.42;100.0
62293;BME280;48292;47.724;18.992;2022-08-20T03:41:55;96919.98;;;17.58;100.0
62293;BME280;48292;47.724;18.992;2022-08-20T03:46:57;96919.98;;;17.58;100.0
62293;BME280;48292;47.724;18.992;2022-08-20T03:51:59;96924.11;;;17.59;100.0
62293;BME280;48292;47.724;18.992;2022-08-20T03:57:01;96924.11;;;17.59;100.0
62293;BME280;48292;47.724;18.992;2022-08-20T04:02:02;96927.61;;;17.66;100.0
62293;BME280;48292;47.724;18.992;2022-08-20T04:07:08;96927.61;;;17.66;100.0
62293;BME280;48292;47.724;18.992;2022-08-20T04:12:10;96934.13;;;17.76;100.0
62293;BME280;48292;47.724;18.992;2022-08-20T04:17:12;96934.13;;;17.76;100.0
62293;BME280;48292;47.724;18.992;2022-08-20T04:22:14;96930.28;;;17.81;100.0
62293;BME280;48292;47.724;18.992;2022-08-20T04:27:16;96930.28;;;17.81;100.0
62293;BME280;48292;47.724;18.992;2022-08-20T04:32:18;96923.5;;;17.89;100.0
62293;BME280;48292;47.724;18.992;2022-08-20T04:37:20;96923.5;;;17.89;100.0
62293;BME280;48292;47.724;18.992;2022-08-20T04:42:23;96937.24;;;17.76;100.0
62293;BME280;48292;47.724;18.992;2022-08-20T04:47:24;96921.34;;;17.78;100.0
62293;BME280;48292;47.724;18.992;2022-08-20T04:52:30;96921.34;;;17.78;100.0
62293;BME280;48292;47.724;18.992;2022-08-20T04:57:32;96943.56;;;17.94;100.0
62293;BME280;48292;47.724;18.992;2022-08-20T05:02:34;96943.56;;;17.94;100.0
62293;BME280;48292;47.724;18.992;2022-08-20T05:07:37;96948.2;;;17.96;100.0
62293;BME280;48292;47.724;18.992;2022-08-20T05:12:40;96948.2;;;17.96;100.0
62293;BME280;48292;47.724;18.992;2022-08-20T05:17:42;96947.19;;;18.05;100.0
62293;BME280;48292;47.724;18.992;2022-08-20T05:22:44;96947.19;;;18.05;100.0
62293;BME280;48292;47.724;18.992;2022-08-20T05:27:46;96949.48;;;18.17;100.0
62293;BME280;48292;47.724;18.992;2022-08-20T05:32:49;96949.48;;;18.17;100.0
62293;BME280;48292;47.724;18.992;2022-08-20T05:37:51;96949.92;;;18.42;100.0
62293;BME280;48292;47.724;18.992;2022-08-20T05:42:53;96949.92;;;18.42;100.0
62293;BME280;48292;47.724;18.992;2022-08-20T05:47:55;96934.27;;;18.76;100.0
62293;BME280;48292;47.724;18.992;2022-08-20T05:52:58;96934.27;;;18.76;100.0
62293;BME280;48292;47.724;18.992;2022-08-20T05:58:01;96931.24;;;18.93;100.0
62293;BME280;48292;47.724;18.992;2022-08-20T06:03:03;96936.33;;;19.11;99.03
62293;BME280;48292;47.724;18.992;2022-08-20T06:08:05;96936.33;;;19.11;99.03
62293;BME280;48292;47.724;18.992;2022-08-20T06:13:09;96929.98;;;19.11;97.86
62293;BME280;48292;47.724;18.992;2022-08-20T06:18:15;96929.98;;;19.11;97.86
62293;BME280;48292;47.724;18.992;2022-08-20T06:23:21;96937.55;;;19.07;98.3
62293;BME280;48292;47.724;18.992;2022-08-20T06:28:23;96937.55;;;19.07;98.3
62293;BME280;48292;47.724;18.992;2022-08-20T06:33:25;96937.46;;;19.04;97.97
62293;BME280;48292;47.724;18.992;2022-08-20T06:38:27;96937.46;;;19.04;97.97
62293;BME280;48292;47.724;18.992;2022-08-20T06:43:29;96932.77;;;19.25;94.98
62293;BME280;48292;47.724;18.992;2022-08-20T06:48:34;96932.77;;;19.25;94.98
62293;BME280;48292;47.724;18.992;2022-08-20T06:53:36;96927.76;;;19.3;94.1
62293;BME280;48292;47.724;18.992;2022-08-20T06:58:38;96927.76;;;19.3;94.1
62293;BME280;48292;47.724;18.992;2022-08-20T07:03:41;96955.19;;;19.41;99.66
62293;BME280;48292;47.724;18.992;2022-08-20T07:08:47;96955.19;;;19.41;99.66
62293;BME280;48292;47.724;18.992;2022-08-20T07:13:49;96982.89;;;19.7;99.82
62293;BME280;48292;47.724;18.992;2022-08-20T07:18:50;96982.04;;;20.55;93.15
62293;BME280;48292;47.724;18.992;2022-08-20T07:23:52;96982.04;;;20.55;93.15
62293;BME280;48292;47.724;18.992;2022-08-20T07:28:54;96980.08;;;20.7;82.69
62293;BME280;48292;47.724;18.992;2022-08-20T07:33:56;96980.08;;;20.7;82.69
62293;BME280;48292;47.724;18.992;2022-08-20T07:39:00;97001.09;;;20.71;81.82
62293;BME280;48292;47.724;18.992;2022-08-20T07:44:06;97001.09;;;20.71;81.82
62293;BME280;48292;47.724;18.992;2022-08-20T07:49:08;97000.68;;;20.37;85.8
62293;BME280;48292;47.724;18.992;2022-08-20T07:54:09;97000.68;;;20.37;85.8
62293;BME280;48292;47.724;18.992;2022-08-20T07:59:11;97006.62;;;20.07;86.85
62293;BME280;48292;47.724;18.992;2022-08-20T08:04:13;97006.62;;;20.07;86.85
62293;BME280;48292;47.724;18.992;2022-08-20T08:09:15;97007.52;;;19.87;90.84
62293;BME280;48292;47.724;18.992;2022-08-20T08:14:18;97007.52;;;19.87;90.84
62293;BME280;48292;47.724;18.992;2022-08-20T08:19:21;97051.07;;;19.67;91.24
62293;BME280;48292;47.724;18.992;2022-08-20T08:24:23;97051.07;;;19.67;91.24
62293;BME280;48292;47.724;18.992;2022-08-20T08:29:29;97076.2;;;19.56;91.62
62293;BME280;48292;47.724;18.992;2022-08-20T08:34:32;97090.06;;;19.45;88.47
62293;BME280;48292;47.724;18.992;2022-08-20T08:39:36;97090.06;;;19.45;88.47
62293;BME280;48292;47.724;18.992;2022-08-20T08:44:39;97082.63;;;19.22;86.72
62293;BME280;48292;47.724;18.992;2022-08-20T08:49:42;97082.63;;;19.22;86.72
62293;BME280;48292;47.724;18.992;2022-08-20T08:54:46;97094.17;;;18.99;92.99
62293;BME280;48292;47.724;18.992;2022-08-20T08:59:51;97094.17;;;18.99;92.99
62293;BME280;48292;47.724;18.992;2022-08-20T09:04:59;97091.17;;;18.73;90.07
62293;BME280;48292;47.724;18.992;2022-08-20T09:10:03;97091.17;;;18.73;90.07
62293;BME280;48292;47.724;18.992;2022-08-20T09:15:05;97067.56;;;18.23;93.92
62293;BME280;48292;47.724;18.992;2022-08-20T09:20:07;97067.56;;;18.23;93.92
62293;BME280;48292;47.724;18.992;2022-08-20T09:25:09;97065.24;;;17.87;97.75
62293;BME280;48292;47.724;18.992;2022-08-20T09:30:13;97065.24;;;17.87;97.75
62293;BME280;48292;47.724;18.992;2022-08-20T09:35:20;97076.69;;;17.56;99.77
62293;BME280;48292;47.724;18.992;2022-08-20T09:40:22;97076.69;;;17.56;99.77
62293;BME280;48292;47.724;18.992;2022-08-20T09:45:24;97088.97;;;17.61;100.0
62293;BME280;48292;47.724;18.992;2022-08-20T09:50:27;97154.67;;;17.59;100.0
62293;BME280;48292;47.724;18.992;2022-08-20T09:55:30;97154.67;;;17.59;100.0
62293;BME280;48292;47.724;18.992;2022-08-20T10:00:33;97129.77;;;17.25;100.0
62293;BME280;48292;47.724;18.992;2022-08-20T10:05:35;97129.77;;;17.25;100.0
62293;BME280;48292;47.724;18.992;2022-08-20T10:10:37;97087.41;;;17.21;100.0
62293;BME280;48292;47.724;18.992;2022-08-20T10:15:39;97087.41;;;17.21;100.0
62293;BME280;48292;47.724;18.992;2022-08-20T10:20:45;97088.66;;;17.29;100.0
62293;BME280;48292;47.724;18.992;2022-08-20T10:25:48;97088.66;;;17.29;100.0
62293;BME280;48292;47.724;18.992;2022-08-20T10:30:50;97033.8;;;17.23;100.0
62293;BME280;48292;47.724;18.992;2022-08-20T10:35:52;97033.8;;;17.23;100.0
62293;BME280;48292;47.724;18.992;2022-08-20T10:40:58;97022.48;;;17.51;100.0
62293;BME280;48292;47.724;18.992;2022-08-20T10:45:59;97022.48;;;17.51;100.0
62293;BME280;48292;47.724;18.992;2022-08-20T10:51:01;97019.35;;;17.88;100.0
62293;BME280;48292;47.724;18.992;2022-08-20T10:56:03;97019.35;;;17.88;100.0
62293;BME280;48292;47.724;18.992;2022-08-20T11:01:05;97025.85;;;18.05;100.0
62293;BME280;48292;47.724;18.992;2022-08-20T11:06:07;97045.55;;;18.14;100.0
62293;BME280;48292;47.724;18.992;2022-08-20T11:11:09;97045.55;;;18.14;100.0
62293;BME280;48292;47.724;18.992;2022-08-20T11:16:10;97048.67;;;18.23;100.0
62293;BME280;48292;47.724;18.992;2022-08-20T11:21:12;97048.67;;;18.23;100.0
62293;BME280;48292;47.724;18.992;2022-08-20T11:26:16;97062.7;;;18.31;99.88
62293;BME280;48292;47.724;18.992;2022-08-20T11:31:20;97062.7;;;18.31;99.88
62293;BME280;48292;47.724;18.992;2022-08-20T11:36:22;97073.13;;;18.56;100.0
62293;BME280;48292;47.724;18.992;2022-08-20T11:41:23;97073.13;;;18.56;100.0
62293;BME280;48292;47.724;18.992;2022-08-20T11:46:25;97067.28;;;18.69;100.0
62293;BME280;48292;47.724;18.992;2022-08-20T11:51:30;97067.28;;;18.69;100.0
62293;BME280;48292;47.724;18.992;2022-08-20T11:56:35;97055.95;;;18.59;98.3
62293;BME280;48292;47.724;18.992;2022-08-20T12:01:38;97055.95;;;18.59;98.3
62293;BME280;48292;47.724;18.992;2022-08-20T12:06:40;97038.97;;;18.85;97.84
62293;BME280;48292;47.724;18.992;2022-08-20T12:11:42;97038.97;;;18.85;97.84
62293;BME280;48292;47.724;18.992;2022-08-20T12:16:44;97026.64;;;19.3;96.71
62293;BME280;48292;47.724;18.992;2022-08-20T12:21:46;97018.68;;;19.37;94.98
62293;BME280;48292;47.724;18.992;2022-08-20T12:26:48;97018.68;;;19.37;94.98
62293;BME280;48292;47.724;18.992;2022-08-20T12:31:49;97003.8;;;19.68;95.9
62293;BME280;48292;47.724;18.992;2022-08-20T12:41:57;96981.72;;;19.26;93.41
62293;BME280;48292;47.724;18.992;2022-08-20T12:47:05;96981.72;;;19.26;93.41
62293;BME280;48292;47.724;18.992;2022-08-20T12:52:07;96963.5;;;19.17;94.44
62293;BME280;48292;47.724;18.992;2022-08-20T12:57:12;96963.5;;;19.17;94.44
62293;BME280;48292;47.724;18.992;2022-08-20T13:02:14;96960.44;;;19.14;95.15
62293;BME280;48292;47.724;18.992;2022-08-20T13:07:20;96960.44;;;19.14;95.15
62293;BME280;48292;47.724;18.992;2022-08-20T13:12:22;96940.17;;;19.32;94.06
62293;BME280;48292;47.724;18.992;2022-08-20T13:17:24;96940.17;;;19.32;94.06
62293;BME280;48292;47.724;18.992;2022-08-20T13:22:30;96946.38;;;19.41;94.92
62293;BME280;48292;47.724;18.992;2022-08-20T13:27:31;96946.38;;;19.41;94.92
62293;BME280;48292;47.724;18.992;2022-08-20T13:32:33;96925.23;;;19.47;93.97
62293;BME280;48292;47.724;18.992;2022-08-20T13:37:35;96922.99;;;19.41;94.14
62293;BME280;48292;47.724;18.992;2022-08-20T13:42:38;96922.99;;;19.41;94.14
62293;BME280;48292;47.724;18.992;2022-08-20T13:47:40;96912.81;;;19.38;93.23
62293;BME280;48292;47.724;18.992;2022-08-20T13:52:42;96912.81;;;19.38;93.23
62293;BME280;48292;47.724;18.992;2022-08-20T13:57:46;96927.91;;;19.69;91.37
62293;BME280;48292;47.724;18.992;2022-08-20T14:02:48;96927.91;;;19.69;91.37
62293;BME280;48292;47.724;18.992;2022-08-20T14:07:49;96926.39;;;19.79;92.33
62293;BME280;48292;47.724;18.992;2022-08-20T14:12:51;96926.39;;;19.79;92.33
62293;BME280;48292;47.724;18.992;2022-08-20T14:17:54;96924.17;;;20.02;92.95
62293;BME280;48292;47.724;18.992;2022-08-20T14:22:57;96924.17;;;20.02;92.95
62293;BME280;48292;47.724;18.992;2022-08-20T14:33:05;96946.55;;;20.47;91.24
62293;BME280;48292;47.724;18.992;2022-08-20T14:38:07;96950.2;;;20.77;94.35
62293;BME280;48292;47.724;18.992;2022-08-20T14:43:09;96950.2;;;20.77;94.35
62293;BME280;48292;47.724;18.992;2022-08-20T14:48:10;96931.59;;;20.59;93.71
62293;BME280;48292;47.724;18.992;2022-08-20T14:53:14;96907.63;;;19.87;91.14
62293;BME280;48292;47.724;18.992;2022-08-20T14:58:16;96907.63;;;19.87;91.14
62293;BME280;48292;47.724;18.992;2022-08-20T15:03:19;96914.08;;;19.63;93.45
62293;BME280;48292;47.724;18.992;2022-08-20T15:08:20;96914.08;;;19.63;93.45
62293;BME280;48292;47.724;18.992;2022-08-20T15:13:26;96931.38;;;19.74;90.43
62293;BME280;48292;47.724;18.992;2022-08-20T15:18:28;96931.38;;;19.74;90.43
62293;BME280;48292;47.724;18.992;2022-08-20T15:23:30;96956.23;;;19.73;90.27
62293;BME280;48292;47.724;18.992;2022-08-20T15:28:32;96956.23;;;19.73;90.27
62293;BME280;48292;47.724;18.992;2022-08-20T15:33:33;96961.31;;;19.85;93.25
62293;BME280;48292;47.724;18.992;2022-08-20T15:38:35;96961.31;;;19.85;93.25
62293;BME280;48292;47.724;18.992;2022-08-20T15:43:37;96950.09;;;19.79;92.05
62293;BME280;48292;47.724;18.992;2022-08-20T15:48:40;96950.09;;;19.79;92.05
62293;BME280;48292;47.724;18.992;2022-08-20T15:53:45;96946.09;;;19.64;92.1
62293;BME280;48292;47.724;18.992;2022-08-20T15:58:51;96946.09;;;19.64;92.1
62293;BME280;48292;47.724;18.992;2022-08-20T16:09:08;96948.21;;;19.51;94.01
62293;BME280;48292;47.724;18.992;2022-08-20T16:14:13;96948.21;;;19.51;94.01
62293;BME280;48292;47.724;18.992;2022-08-20T16:19:17;96951.52;;;19.51;94.96
62293;BME280;48292;47.724;18.992;2022-08-20T16:24:21;96951.52;;;19.51;94.96
62293;BME280;48292;47.724;18.992;2022-08-20T16:29:24;96951.0;;;19.46;97.15
62293;BME280;48292;47.724;18.992;2022-08-20T16:34:27;96951.0;;;19.46;97.15
62293;BME280;48292;47.724;18.992;2022-08-20T16:39:37;96954.47;;;19.26;98.87
62293;BME280;48292;47.724;18.992;2022-08-20T16:44:43;96954.47;;;19.26;98.87
62293;BME280;48292;47.724;18.992;2022-08-20T16:49:47;96956.48;;;19.14;98.67
62293;BME280;48292;47.724;18.992;2022-08-20T16:54:49;96956.48;;;19.14;98.67
62293;BME280;48292;47.724;18.992;2022-08-20T16:59:53;96952.45;;;18.81;99.3
62293;BME280;48292;47.724;18.992;2022-08-20T17:04:55;96952.45;;;18.81;99.3
62293;BME280;48292;47.724;18.992;2022-08-20T17:10:11;96950.28;;;18.45;99.37
62293;BME280;48292;47.724;18.992;2022-08-20T17:15:18;96962.64;;;18.06;99.97
62293;BME280;48292;47.724;18.992;2022-08-20T17:20:21;96962.64;;;18.06;99.97
62293;BME280;48292;47.724;18.992;2022-08-20T17:25:28;96959.55;;;17.92;100.0
62293;BME280;48292;47.724;18.992;2022-08-20T17:30:34;96959.55;;;17.92;100.0
62293;BME280;48292;47.724;18.992;2022-08-20T17:35:37;96964.72;;;17.9;100.0
62293;BME280;48292;47.724;18.992;2022-08-20T17:40:41;96964.72;;;17.9;100.0
62293;BME280;48292;47.724;18.992;2022-08-20T17:45:43;96952.13;;;17.8;100.0
62293;BME280;48292;47.724;18.992;2022-08-20T17:50:45;96952.13;;;17.8;100.0
62293;BME280;48292;47.724;18.992;2022-08-20T17:55:48;96944.2;;;17.65;100.0
62293;BME280;48292;47.724;18.992;2022-08-20T18:00:50;96944.2;;;17.65;100.0
62293;BME280;48292;47.724;18.992;2022-08-20T18:05:56;96950.86;;;17.43;100.0
62293;BME280;48292;47.724;18.992;2022-08-20T18:10:59;96950.86;;;17.43;100.0
62293;BME280;48292;47.724;18.992;2022-08-20T18:16:01;96963.27;;;17.29;100.0
62293;BME280;48292;47.724;18.992;2022-08-20T18:21:13;96968.63;;;17.18;100.0
62293;BME280;48292;47.724;18.992;2022-08-20T18:26:16;96968.63;;;17.18;100.0
62293;BME280;48292;47.724;18.992;2022-08-20T18:31:23;96966.55;;;17.09;100.0
62293;BME280;48292;47.724;18.992;2022-08-20T18:36:26;96966.55;;;17.09;100.0
62293;BME280;48292;47.724;18.992;2022-08-20T18:41:30;96967.47;;;17.04;100.0
62293;BME280;48292;47.724;18.992;2022-08-20T18:46:32;96967.47;;;17.04;100.0
62293;BME280;48292;47.724;18.992;2022-08-20T18:51:35;96953.06;;;16.99;100.0
62293;BME280;48292;47.724;18.992;2022-08-20T18:56:39;96953.06;;;16.99;100.0
62293;BME280;48292;47.724;18.992;2022-08-20T19:01:44;96956.61;;;17.45;100.0
62293;BME280;48292;47.724;18.992;2022-08-20T19:06:48;96956.61;;;17.45;100.0
62293;BME280;48292;47.724;18.992;2022-08-20T19:12:02;96967.01;;;17.65;100.0
62293;BME280;48292;47.724;18.992;2022-08-20T19:17:08;96967.01;;;17.65;100.0
62293;BME280;48292;47.724;18.992;2022-08-20T19:22:19;96965.69;;;17.89;100.0
62293;BME280;48292;47.724;18.992;2022-08-20T19:27:16;96967.22;;;17.95;100.0
62293;BME280;48292;47.724;18.992;2022-08-20T19:32:19;96967.22;;;17.95;100.0
62293;BME280;48292;47.724;18.992;2022-08-20T19:37:23;96937.0;;;18.03;100.0
62293;BME280;48292;47.724;18.992;2022-08-20T19:42:39;96937.0;;;18.03;100.0
62293;BME280;48292;47.724;18.992;2022-08-20T19:47:41;96925.09;;;18.26;100.0
62293;BME280;48292;47.724;18.992;2022-08-20T19:52:47;96925.09;;;18.26;100.0
62293;BME280;48292;47.724;18.992;2022-08-20T19:57:52;96943.27;;;18.4;100.0
62293;BME280;48292;47.724;18.992;2022-08-20T20:02:54;96943.27;;;18.4;100.0
62293;BME280;48292;47.724;18.992;2022-08-20T20:07:57;96948.36;;;18.43;100.0
62293;BME280;48292;47.724;18.992;2022-08-20T20:13:05;96948.36;;;18.43;100.0
62293;BME280;48292;47.724;18.992;2022-08-20T20:18:08;96938.91;;;18.39;100.0
62293;BME280;48292;47.724;18.992;2022-08-20T20:23:12;96938.91;;;18.39;100.0
62293;BME280;48292;47.724;18.992;2022-08-20T20:28:16;96935.29;;;18.41;100.0
62293;BME280;48292;47.724;18.992;2022-08-20T20:33:25;96919.66;;;18.4;100.0
62293;BME280;48292;47.724;18.992;2022-08-20T20:38:24;96919.66;;;18.4;100.0
62293;BME280;48292;47.724;18.992;2022-08-20T20:43:28;96913.54;;;18.44;100.0
62293;BME280;48292;47.724;18.992;2022-08-20T20:48:38;96913.54;;;18.44;100.0
62293;BME280;48292;47.724;18.992;2022-08-20T20:53:37;96913.54;;;18.44;100.0
62293;BME280;48292;47.724;18.992;2022-08-20T20:58:44;96913.54;;;18.44;100.0
62293;BME280;48292;47.724;18.992;2022-08-20T21:03:50;96913.54;;;18.44;100.0
62293;BME280;48292;47.724;18.992;2022-08-20T21:08:52;96913.54;;;18.44;100.0
62293;BME280;48292;47.724;18.992;2022-08-20T21:13:54;96913.54;;;18.44;100.0
62293;BME280;48292;47.724;18.992;2022-08-20T21:18:55;96913.54;;;18.44;100.0
62293;BME280;48292;47.724;18.992;2022-08-20T21:23:57;96913.54;;;18.44;100.0
62293;BME280;48292;47.724;18.992;2022-08-20T21:28:59;96913.54;;;18.44;100.0
62293;BME280;48292;47.724;18.992;2022-08-20T21:34:01;96913.54;;;18.44;100.0
62293;BME280;48292;47.724;18.992;2022-08-20T21:39:03;96913.54;;;18.44;100.0
